Tupelo, Mississippi
Current Conditions -  °F | °C
As of 11:53 PM on Wednesday 17 Dec 2014 (Local Time) from KTUP Reporting Station
Scattered Clouds Scattered Clouds  
Wind Chill: 41°   Ceiling: Unl
Heat Index: 41°   Visibility: 10mi
Dew Point: 33°   Wind: 3mph
Humidity: 73%   Direction: 10°N
Pressure: 30.24"   Gusts: NA
Location:  34.26°N, 88.71°W
Report Text: KTUP 180553Z AUTO 01003KT 10SM SCT085 SCT110 05/01 A3024 RMK AO2 SLP241 T00500006 10067 20039 400940006 53005
Loading
Personal Weather Stations






























Interactive Weather Map New forecast layout! Learn more

10-Day Weather Forecast

Advertisements
Track Severe Weather on mobile